Wyaconda, Missouri
Current Conditions -  °F | °C
As of 2:15 PM on Monday 24 Nov 2014 (Local Time) from KEOK Reporting Station
Unknown Precip Unknown Precip  
Wind Chill: 18°   Ceiling: 2400
Heat Index: 30°   Visibility: 10mi
Dew Point: 27°   Wind: 20mph
Humidity: 86%   Direction: 260°W
Pressure: 29.68"   Gusts: 25mph
Location:  40.39°N, 91.93°W
Report Text: KEOK 242015Z AUTO 26017G22KT 10SM -UP OVC024 M01/M03 A2968 RMK AO2
Loading
Personal Weather Stations






























Interactive Weather Map New forecast layout! Learn more

10-Day Weather Forecast

Advertisements
Track Severe Weather on mobile